MaSS Merit — 3FNT3 — position and weather

sailwx.info

Track history (hours):
 
Tides and Currents Weather Stations Pressure Air Temp Water Temp Dewpoint Dewpoint Depression Visibility Wind Speed Wind Dir Waves Ship Positions

MaSS Merit

Last reported at 2017-Jan-24 08:27 UTC. Time now 2017-Feb-19 12:00 UTC.
Position N 37°41' E 122°01'.
Warning: this ship's position is 26 days out of date.

Length 189 m; draft 6.2 m.

Type: Cargo ship. MMSI: 355599000.

Date/timePositionNaut miles runAvg speedWind from/ knotsBaromVisibWave heightAir tempDewpointWater temp
2017-Jan-24 08:27N 37°41' E 122°01'1213.2
2017-Jan-24 07:33N 37°43' E 121°47'1313.4
2017-Jan-24 06:33N 37°45' E 121°30'1413.5
2017-Jan-24 05:33N 37°48' E 121°13'1713.2
2017-Jan-24 04:18N 37°52' E 120°53'3 3.9
2017-Jan-24 03:32N 37°49' E 120°50'0 0.0
2017-Jan-24 01:04N 37°49' E 120°50'0 0.0
2017-Jan-24 00:16N 37°49' E 120°50'0 0.0
2017-Jan-23 16:28N 37°49' E 120°50'  
2017-Jan-21 08:25N 37°49' E 120°50'11 5.8
2017-Jan-21 06:28N 37°50' E 121°05'1011.1
2017-Jan-21 05:33N 37°47' E 121°17'1111.3
2017-Jan-21 04:33N 37°46' E 121°31'1212.0
2017-Jan-21 03:33N 37°43' E 121°46'1212.0
2017-Jan-21 02:32N 37°41' E 122°01'  
Track history (hours):
 
Tides and Currents Weather Stations Pressure Air Temp Water Temp Dewpoint Dewpoint Depression Visibility Wind Speed Wind Dir Waves Ship Positions

MaSS Merit

Last reported at 2017-Jan-24 08:27 UTC. Time now 2017-Feb-19 12:00 UTC.
Position N 37°41' E 122°01'.
Warning: this ship's position is 26 days out of date.

Length 189 m; draft 6.2 m.

Type: Cargo ship. MMSI: 355599000.

Date/timePositionNaut miles runAvg speedWind from/ knotsBaromVisibWave heightAir tempDewpointWater temp
2017-Jan-24 08:27N 37°41' E 122°01'1213.2
2017-Jan-24 07:33N 37°43' E 121°47'1313.4
2017-Jan-24 06:33N 37°45' E 121°30'1413.5
2017-Jan-24 05:33N 37°48' E 121°13'1713.2
2017-Jan-24 04:18N 37°52' E 120°53'3 3.9
2017-Jan-24 03:32N 37°49' E 120°50'0 0.0
2017-Jan-24 01:04N 37°49' E 120°50'0 0.0
2017-Jan-24 00:16N 37°49' E 120°50'0 0.0
2017-Jan-23 16:28N 37°49' E 120°50'  
2017-Jan-21 08:25N 37°49' E 120°50'11 5.8
2017-Jan-21 06:28N 37°50' E 121°05'1011.1
2017-Jan-21 05:33N 37°47' E 121°17'1111.3
2017-Jan-21 04:33N 37°46' E 121°31'1212.0
2017-Jan-21 03:33N 37°43' E 121°46'1212.0
2017-Jan-21 02:32N 37°41' E 122°01'  

Dump ship's entire track history